Time;durP1;ratioP1;P1;durP2;ratioP2;P2;SDS_P1;SDS_P2;PMS_P1;PMS_P2;Temp;Humidity;BMP_temperature;BMP_pressure;BME280_temperature;BME280_humidity;BME280_pressure;Samples;Min_cycle;Max_cycle;Signal;HPM_P1;HPM_P2
2023/09/06 00:00:29;;;;;;;1999.90;999.90;;;21.90;99.90;;;;;;5053202;28;20410;-71
2023/09/06 00:02:56;;;;;;;1999.90;999.90;;;21.90;99.90;;;;;;5052803;28;20783;-71
2023/09/06 00:05:22;;;;;;;1999.90;999.90;;;21.90;99.90;;;;;;5052762;28;20404;-72
2023/09/06 00:07:48;;;;;;;1999.90;999.90;;;21.80;99.90;;;;;;5052839;28;20451;-72
2023/09/06 00:10:14;;;;;;;1999.90;999.90;;;21.70;99.90;;;;;;5052767;28;20179;-72
2023/09/06 00:12:40;;;;;;;1999.90;999.90;;;21.60;99.90;;;;;;5052453;28;20164;-72
2023/09/06 00:15:06;;;;;;;1999.90;999.90;;;21.50;99.90;;;;;;5052771;28;20516;-72
2023/09/06 00:17:37;;;;;;;1999.90;999.90;;;21.40;99.90;;;;;;5052736;28;20461;-71
2023/09/06 00:20:21;;;;;;;1999.90;999.90;;;21.30;99.90;;;;;;5052757;28;20418;-72
2023/09/06 00:22:58;;;;;;;1999.90;999.90;;;21.30;99.90;;;;;;5052353;28;20402;-71
2023/09/06 00:25:25;;;;;;;1999.90;999.90;;;21.30;99.90;;;;;;5052347;28;20441;-71
2023/09/06 00:27:51;;;;;;;1999.90;999.90;;;21.30;99.90;;;;;;5052560;28;20444;-71
2023/09/06 00:30:21;;;;;;;1999.90;999.90;;;21.30;99.90;;;;;;5052431;28;20920;-72
2023/09/06 00:32:51;;;;;;;1999.90;999.90;;;21.40;99.90;;;;;;5052184;28;20405;-72
2023/09/06 00:35:16;;;;;;;1999.90;999.90;;;21.40;99.90;;;;;;5052751;28;20425;-72
2023/09/06 00:37:42;;;;;;;1999.90;999.90;;;21.50;99.90;;;;;;5056116;28;20834;-72
2023/09/06 00:40:18;;;;;;;1999.90;999.90;;;21.40;99.90;;;;;;5056244;28;20536;-72
2023/09/06 00:42:52;;;;;;;1999.90;999.90;;;21.30;99.90;;;;;;5055628;28;20438;-72
2023/09/06 00:45:22;;;;;;;1999.90;999.90;;;21.30;99.90;;;;;;5055609;28;20804;-72
2023/09/06 00:47:50;;;;;;;1999.90;999.90;;;21.30;99.90;;;;;;5055610;28;20448;-72
2023/09/06 00:50:17;;;;;;;1999.90;999.90;;;21.30;99.90;;;;;;5055827;28;20384;-72
2023/09/06 00:52:43;;;;;;;1999.90;999.90;;;21.30;99.90;;;;;;5055105;28;20935;-72
2023/09/06 00:55:10;;;;;;;1999.90;999.90;;;21.30;99.90;;;;;;5055130;28;20457;-72
2023/09/06 00:57:37;;;;;;;1999.90;999.90;;;21.20;99.90;;;;;;5055308;28;20416;-72
2023/09/06 01:00:06;;;;;;;1999.90;999.90;;;21.20;99.90;;;;;;5055864;28;20390;-72
2023/09/06 01:02:32;;;;;;;1999.90;999.90;;;21.20;99.90;;;;;;5054282;28;20397;-72
2023/09/06 01:04:58;;;;;;;1999.90;999.90;;;21.00;99.90;;;;;;5054239;28;20874;-72
2023/09/06 01:07:27;;;;;;;1999.90;999.90;;;20.90;99.90;;;;;;5054295;28;20229;-72
2023/09/06 01:09:53;;;;;;;1999.90;999.90;;;20.90;99.90;;;;;;5054550;28;20192;-72
2023/09/06 01:12:19;;;;;;;1999.90;999.90;;;20.90;99.90;;;;;;5053895;28;20412;-72
2023/09/06 01:14:44;;;;;;;1999.90;999.90;;;20.90;99.90;;;;;;5053738;28;20253;-72
2023/09/06 01:17:13;;;;;;;1999.90;999.90;;;20.90;99.90;;;;;;5054428;28;20206;-72
2023/09/06 01:19:45;;;;;;;1999.90;999.90;;;20.80;99.90;;;;;;5054355;28;20228;-72
2023/09/06 01:22:18;;;;;;;1999.90;999.90;;;20.70;99.90;;;;;;5054542;28;20400;-72
2023/09/06 01:24:43;;;;;;;1999.90;999.90;;;20.60;99.90;;;;;;5036642;28;20449;-72
2023/09/06 01:27:12;;;;;;;1999.90;999.90;;;20.70;99.90;;;;;;5035027;28;20377;-72
2023/09/06 01:29:37;;;;;;;1999.90;999.90;;;20.60;99.90;;;;;;5034918;28;20410;-72
2023/09/06 01:32:05;;;;;;;1999.90;999.90;;;20.60;99.90;;;;;;5033907;28;20755;-72
2023/09/06 01:34:31;;;;;;;1999.90;999.90;;;20.60;99.90;;;;;;5034571;28;20179;-72
2023/09/06 01:36:56;;;;;;;1999.90;999.90;;;20.60;99.90;;;;;;5034540;28;20454;-72
2023/09/06 01:39:22;;;;;;;1999.90;999.90;;;20.50;99.90;;;;;;5034458;28;20166;-72
2023/09/06 01:41:48;;;;;;;1999.90;999.90;;;20.40;99.90;;;;;;5034100;28;20660;-72
2023/09/06 01:44:14;;;;;;;1999.90;999.90;;;20.40;99.90;;;;;;5034702;28;20409;-72
2023/09/06 01:46:40;;;;;;;1999.90;999.90;;;20.40;99.90;;;;;;5034481;28;20185;-72
2023/09/06 01:49:06;;;;;;;1999.90;999.90;;;20.40;99.90;;;;;;5034195;28;20401;-72
2023/09/06 01:51:31;;;;;;;1999.90;999.90;;;20.30;99.90;;;;;;5034380;28;20413;-72
2023/09/06 01:53:57;;;;;;;1999.90;999.90;;;20.20;99.90;;;;;;5032373;28;20178;-72
2023/09/06 01:56:23;;;;;;;1999.90;999.90;;;20.20;99.90;;;;;;5031529;28;20262;-72
2023/09/06 01:58:48;;;;;;;1999.90;999.90;;;20.00;99.90;;;;;;5031731;28;20168;-72
2023/09/06 02:01:14;;;;;;;1999.90;999.90;;;19.80;99.90;;;;;;5031306;28;20160;-72
2023/09/06 02:03:40;;;;;;;1999.90;999.90;;;19.80;99.90;;;;;;5031672;28;20258;-71
2023/09/06 02:06:05;;;;;;;1999.90;999.90;;;19.60;99.90;;;;;;5031579;28;20242;-71
2023/09/06 02:08:32;;;;;;;1999.90;999.90;;;19.70;99.90;;;;;;5031668;28;20207;-72
2023/09/06 02:10:57;;;;;;;1999.90;999.90;;;19.70;99.90;;;;;;5031199;28;20180;-72
2023/09/06 02:13:23;;;;;;;1999.90;999.90;;;19.70;99.90;;;;;;5031946;28;20413;-72
2023/09/06 02:15:48;;;;;;;1999.90;999.90;;;19.60;99.90;;;;;;5034799;28;20671;-72
2023/09/06 02:18:17;;;;;;;1999.90;999.90;;;19.60;99.90;;;;;;5035185;28;20214;-71
2023/09/06 02:20:44;;;;;;;1999.90;999.90;;;19.50;99.90;;;;;;5035017;28;20649;-72
2023/09/06 02:23:10;;;;;;;1999.90;999.90;;;19.40;99.90;;;;;;5034606;28;20484;-71
2023/09/06 02:25:36;;;;;;;1999.90;999.90;;;19.40;99.90;;;;;;5034727;28;20887;-72
2023/09/06 02:28:06;;;;;;;1999.90;999.90;;;19.40;99.90;;;;;;5034856;28;20422;-71
2023/09/06 02:30:37;;;;;;;1999.90;999.90;;;19.40;99.90;;;;;;5034954;28;20650;-72
2023/09/06 02:33:08;;;;;;;1999.90;999.90;;;19.40;99.90;;;;;;5034542;28;20490;-71
2023/09/06 02:35:35;;;;;;;1999.90;999.90;;;19.30;99.90;;;;;;5034483;28;20471;-72
2023/09/06 02:38:00;;;;;;;1999.90;999.90;;;19.30;99.90;;;;;;5034689;28;20405;-71
2023/09/06 02:40:26;;;;;;;1999.90;999.90;;;19.30;99.90;;;;;;5034559;28;20773;-72
2023/09/06 02:42:53;;;;;;;1999.90;999.90;;;19.20;99.90;;;;;;5034224;28;20210;-72
2023/09/06 02:45:22;;;;;;;1999.90;999.90;;;19.10;99.90;;;;;;5034563;28;20197;-71
2023/09/06 02:47:49;;;;;;;1999.90;999.90;;;19.10;99.90;;;;;;5034499;28;20403;-72
2023/09/06 02:50:16;;;;;;;1999.90;999.90;;;19.00;99.90;;;;;;5034455;28;20403;-72
2023/09/06 02:52:45;;;;;;;1999.90;999.90;;;19.00;99.90;;;;;;5034199;28;20890;-72
2023/09/06 02:55:14;;;;;;;1999.90;999.90;;;19.00;99.90;;;;;;5034471;28;20432;-71
2023/09/06 02:57:41;;;;;;;1999.90;999.90;;;18.90;99.90;;;;;;5034177;28;20450;-71
2023/09/06 03:00:26;;;;;;;1999.90;999.90;;;18.80;99.90;;;;;;5034061;28;20406;-72
2023/09/06 03:02:54;;;;;;;1999.90;999.90;;;18.60;99.90;;;;;;5033947;28;20490;-71
2023/09/06 03:05:20;;;;;;;1999.90;999.90;;;18.50;99.90;;;;;;5034032;28;20824;-71
2023/09/06 03:07:53;;;;;;;1999.90;999.90;;;18.40;99.90;;;;;;5034025;28;20414;-72
2023/09/06 03:10:20;;;;;;;1999.90;999.90;;;18.30;99.90;;;;;;5034250;28;20160;-72
2023/09/06 03:12:56;;;;;;;1999.90;999.90;;;18.30;99.90;;;;;;5033816;28;20403;-71
2023/09/06 03:15:31;;;;;;;1999.90;999.90;;;18.20;99.90;;;;;;5034035;28;20422;-70
2023/09/06 03:18:01;;;;;;;1999.90;999.90;;;18.30;99.90;;;;;;5034034;28;20889;-71
2023/09/06 03:20:32;;;;;;;1999.90;999.90;;;18.20;99.90;;;;;;5034050;28;20412;-71
2023/09/06 03:23:01;;;;;;;1999.90;999.90;;;18.10;99.90;;;;;;5033527;28;20409;-71
2023/09/06 03:25:27;;;;;;;1999.90;999.90;;;18.10;99.90;;;;;;5032393;28;20457;-71
2023/09/06 03:28:00;;;;;;;1999.90;999.90;;;18.00;99.90;;;;;;5033586;28;20417;-71
2023/09/06 03:30:30;;;;;;;1999.90;999.90;;;18.00;99.90;;;;;;5033529;28;20387;-71
2023/09/06 03:32:57;;;;;;;1999.90;999.90;;;18.10;99.90;;;;;;5033175;28;20408;-71
2023/09/06 03:35:22;;;;;;;1999.90;999.90;;;18.00;99.90;;;;;;5033324;28;20928;-71
2023/09/06 03:37:51;;;;;;;1999.90;999.90;;;17.90;99.90;;;;;;5033380;28;20408;-71
2023/09/06 03:40:36;;;;;;;1999.90;999.90;;;18.00;99.90;;;;;;5033383;28;20619;-71
2023/09/06 03:43:14;;;;;;;1999.90;999.90;;;18.00;99.90;;;;;;5033067;28;20403;-71
2023/09/06 03:45:55;;;;;;;1999.90;999.90;;;17.90;99.90;;;;;;5033200;28;20430;-71
2023/09/06 03:48:23;;;;;;;1999.90;999.90;;;17.80;99.90;;;;;;5033232;28;20410;-71
2023/09/06 03:50:57;;;;;;;1999.90;999.90;;;17.70;99.90;;;;;;5033142;28;20868;-71
2023/09/06 03:53:25;;;;;;;1999.90;999.90;;;17.80;99.90;;;;;;5033141;28;20394;-71
2023/09/06 03:55:51;;;;;;;1999.90;999.90;;;17.80;99.90;;;;;;5033086;28;20456;-71
2023/09/06 03:58:18;;;;;;;1999.90;999.90;;;17.90;99.90;;;;;;5032933;28;20494;-71
2023/09/06 04:00:44;;;;;;;1999.90;999.90;;;17.90;99.90;;;;;;5032979;28;20441;-71
2023/09/06 04:03:10;;;;;;;1999.90;999.90;;;17.70;99.90;;;;;;5032720;28;20410;-71
2023/09/06 04:05:36;;;;;;;1999.90;999.90;;;17.70;99.90;;;;;;5032763;28;20432;-71
2023/09/06 04:08:06;;;;;;;1999.90;999.90;;;17.70;99.90;;;;;;5032848;28;20417;-71
2023/09/06 04:10:44;;;;;;;1999.90;999.90;;;17.70;99.90;;;;;;5032843;28;20177;-71
2023/09/06 04:13:11;;;;;;;1999.90;999.90;;;17.70;99.90;;;;;;5032583;28;20410;-71
2023/09/06 04:15:37;;;;;;;1999.90;999.90;;;17.80;99.90;;;;;;5032588;28;20851;-71
2023/09/06 04:18:05;;;;;;;1999.90;999.90;;;17.80;99.90;;;;;;5032643;28;20530;-71
2023/09/06 04:20:35;;;;;;;1999.90;999.90;;;17.80;99.90;;;;;;5032740;28;20823;-71
2023/09/06 04:23:05;;;;;;;1999.90;999.90;;;17.80;99.90;;;;;;5032360;28;20447;-71
2023/09/06 04:25:33;;;;;;;1999.90;999.90;;;17.90;99.90;;;;;;5032515;28;20867;-71
2023/09/06 04:28:07;;;;;;;1999.90;999.90;;;17.80;99.90;;;;;;5034441;28;20410;-72
2023/09/06 04:30:34;;;;;;;1999.90;999.90;;;17.80;99.90;;;;;;5035122;28;20415;-72
2023/09/06 04:33:00;;;;;;;1999.90;999.90;;;17.80;99.90;;;;;;5034642;28;20760;-72
2023/09/06 04:35:42;;;;;;;1999.90;999.90;;;17.80;99.90;;;;;;5035142;28;20429;-72
2023/09/06 04:38:09;;;;;;;1999.90;999.90;;;17.80;99.90;;;;;;5034447;28;20166;-72
2023/09/06 04:40:35;;;;;;;1999.90;999.90;;;17.80;99.90;;;;;;5034551;28;20405;-72
2023/09/06 04:43:01;;;;;;;1999.90;999.90;;;17.80;99.90;;;;;;5034895;28;20410;-72
2023/09/06 04:45:27;;;;;;;1999.90;999.90;;;17.60;99.90;;;;;;5034845;28;20418;-72
2023/09/06 04:47:52;;;;;;;1999.90;999.90;;;17.70;99.90;;;;;;5035337;28;20171;-72
2023/09/06 04:50:18;;;;;;;1999.90;999.90;;;17.60;99.90;;;;;;5034948;28;20528;-72
2023/09/06 04:52:47;;;;;;;1999.90;999.90;;;17.70;99.90;;;;;;5035087;28;20194;-72
2023/09/06 04:55:13;;;;;;;1999.90;999.90;;;17.70;99.90;;;;;;5035243;28;20198;-72
2023/09/06 04:57:42;;;;;;;1999.90;999.90;;;17.70;99.90;;;;;;5035295;28;20460;-72
2023/09/06 05:00:30;;;;;;;1999.90;999.90;;;17.80;99.90;;;;;;5035624;28;20430;-72
2023/09/06 05:02:57;;;;;;;1999.90;999.90;;;17.80;99.90;;;;;;5035210;28;20399;-72
2023/09/06 05:05:23;;;;;;;1999.90;999.90;;;17.80;99.90;;;;;;5035340;28;20423;-72
2023/09/06 05:07:49;;;;;;;1999.90;999.90;;;17.80;99.90;;;;;;5036495;28;20427;-72
2023/09/06 05:10:15;;;;;;;1999.90;999.90;;;17.80;99.90;;;;;;5036350;28;20434;-72
2023/09/06 05:12:41;;;;;;;1999.90;999.90;;;17.70;99.90;;;;;;5035995;28;20404;-72
2023/09/06 05:15:08;;;;;;;1999.90;999.90;;;17.80;99.90;;;;;;5036576;28;20661;-72
2023/09/06 05:17:34;;;;;;;1999.90;999.90;;;17.70;99.90;;;;;;5035710;28;20594;-72
2023/09/06 05:20:28;;;;;;;1999.90;999.90;;;17.70;99.90;;;;;;5035937;28;20397;-72
2023/09/06 05:22:59;;;;;;;1999.90;999.90;;;17.70;99.90;;;;;;5032650;28;20764;-72
2023/09/06 05:25:25;;;;;;;1999.90;999.90;;;17.70;99.90;;;;;;5031673;28;20467;-71
2023/09/06 05:27:56;;;;;;;1999.90;999.90;;;17.70;99.90;;;;;;5031821;28;20406;-72
2023/09/06 05:30:21;;;;;;;1999.90;999.90;;;17.80;99.90;;;;;;5031786;28;20405;-72
2023/09/06 05:32:47;;;;;;;1999.90;999.90;;;17.80;99.90;;;;;;5031452;28;20782;-71
2023/09/06 05:35:13;;;;;;;1999.90;999.90;;;17.90;99.90;;;;;;5031540;28;20207;-71
2023/09/06 05:37:39;;;;;;;1999.90;999.90;;;17.90;99.90;;;;;;5031822;28;20216;-71
2023/09/06 05:40:06;;;;;;;1999.90;999.90;;;17.90;99.90;;;;;;5032395;28;20958;-72
2023/09/06 05:42:32;;;;;;;1999.90;999.90;;;18.00;99.90;;;;;;5032997;28;20400;-72
2023/09/06 05:44:58;;;;;;;1999.90;999.90;;;18.10;99.90;;;;;;5033374;28;20433;-72
2023/09/06 05:47:23;;;;;;;1999.90;999.90;;;18.10;99.90;;;;;;5033727;28;20198;-72
2023/09/06 05:49:52;;;;;;;1999.90;999.90;;;18.10;99.90;;;;;;5036504;28;20180;-72
2023/09/06 05:52:17;;;;;;;1999.90;999.90;;;18.10;99.90;;;;;;5037755;28;20201;-72
2023/09/06 05:54:44;;;;;;;1999.90;999.90;;;18.20;99.90;;;;;;5037332;28;20454;-72
2023/09/06 05:57:10;;;;;;;1999.90;999.90;;;18.20;99.90;;;;;;5037693;28;20207;-72
2023/09/06 05:59:36;;;;;;;1999.90;999.90;;;18.30;99.90;;;;;;5036163;28;20756;-72
2023/09/06 06:02:02;;;;;;;1999.90;999.90;;;18.30;99.90;;;;;;5035130;28;20169;-71
2023/09/06 06:04:28;;;;;;;1999.90;999.90;;;18.30;99.90;;;;;;5035191;28;20825;-72
2023/09/06 06:06:54;;;;;;;1999.90;999.90;;;18.30;99.90;;;;;;5035230;28;20808;-72
2023/09/06 06:09:21;;;;;;;1999.90;999.90;;;18.40;99.90;;;;;;5035160;28;20172;-72
2023/09/06 06:11:47;;;;;;;1999.90;999.90;;;18.40;99.90;;;;;;5034879;28;20411;-72
2023/09/06 06:14:13;;;;;;;1999.90;999.90;;;18.50;99.90;;;;;;5035174;28;20414;-72
2023/09/06 06:16:39;;;;;;;1999.90;999.90;;;18.50;99.90;;;;;;5034838;28;20207;-71
2023/09/06 06:19:04;;;;;;;1999.90;999.90;;;18.60;99.90;;;;;;5034820;28;20179;-70
2023/09/06 06:21:31;;;;;;;1999.90;999.90;;;18.70;99.90;;;;;;5034920;28;20383;-71
2023/09/06 06:23:57;;;;;;;1999.90;999.90;;;18.80;99.90;;;;;;5034640;28;20539;-71
2023/09/06 06:26:23;;;;;;;1999.90;999.90;;;18.80;99.90;;;;;;5034971;28;20930;-71
2023/09/06 06:28:49;;;;;;;1999.90;999.90;;;18.90;99.90;;;;;;5034679;28;20410;-71
2023/09/06 06:31:15;;;;;;;1999.90;999.90;;;18.90;99.90;;;;;;5034390;28;20169;-71
2023/09/06 06:33:40;;;;;;;1999.90;999.90;;;19.00;99.90;;;;;;5034606;28;20694;-71
2023/09/06 06:36:06;;;;;;;1999.90;999.90;;;19.00;99.90;;;;;;5034421;28;20523;-71
2023/09/06 06:38:32;;;;;;;1999.90;999.90;;;19.00;99.90;;;;;;5034527;28;20259;-71
2023/09/06 06:40:58;;;;;;;1999.90;999.90;;;19.00;99.90;;;;;;5037026;28;20168;-71
2023/09/06 06:43:23;;;;;;;1999.90;999.90;;;19.00;99.90;;;;;;5044664;28;20571;-71
2023/09/06 06:45:52;;;;;;;1999.90;999.90;;;19.10;99.90;;;;;;5039922;28;20481;-71
2023/09/06 06:48:18;;;;;;;1999.90;999.90;;;19.10;99.90;;;;;;5045733;28;20434;-71
2023/09/06 06:50:44;;;;;;;1999.90;999.90;;;19.20;99.90;;;;;;5032560;28;20456;-71
2023/09/06 06:53:10;;;;;;;1999.90;999.90;;;19.20;99.90;;;;;;5045551;28;20460;-71
2023/09/06 06:55:37;;;;;;;1999.90;999.90;;;19.30;99.90;;;;;;5053910;28;20193;-71
2023/09/06 06:58:03;;;;;;;1999.90;999.90;;;19.30;99.90;;;;;;5054748;28;20186;-72
2023/09/06 07:00:31;;;;;;;1999.90;999.90;;;19.40;99.90;;;;;;5054928;28;20976;-72
2023/09/06 07:02:57;;;;;;;1999.90;999.90;;;19.50;99.90;;;;;;5055347;28;20436;-72
2023/09/06 07:05:23;;;;;;;1999.90;999.90;;;19.60;99.90;;;;;;5046274;28;20435;-72
2023/09/06 07:07:49;;;;;;;1999.90;999.90;;;19.60;99.90;;;;;;5047852;28;20406;-72
2023/09/06 07:10:15;;;;;;;1999.90;999.90;;;19.80;99.90;;;;;;5055764;28;20539;-72
2023/09/06 07:12:41;;;;;;;1999.90;999.90;;;19.90;99.90;;;;;;5056739;28;20175;-72
2023/09/06 07:15:07;;;;;;;1999.90;999.90;;;20.00;99.90;;;;;;5056705;28;20190;-72
2023/09/06 07:17:33;;;;;;;1999.90;999.90;;;20.10;99.90;;;;;;5055786;28;20528;-72
2023/09/06 07:19:58;;;;;;;1999.90;999.90;;;20.10;99.90;;;;;;5055261;28;20402;-72
2023/09/06 07:22:24;;;;;;;1999.90;999.90;;;20.20;99.90;;;;;;5055154;28;20865;-72
2023/09/06 07:24:50;;;;;;;1999.90;999.90;;;20.40;99.90;;;;;;5055629;28;20289;-72
2023/09/06 07:27:16;;;;;;;1999.90;999.90;;;20.50;99.90;;;;;;5055829;28;20439;-72
2023/09/06 07:29:41;;;;;;;1999.90;999.90;;;20.50;99.90;;;;;;5055843;28;20169;-72
2023/09/06 07:32:07;;;;;;;1999.90;999.90;;;20.60;99.90;;;;;;5054944;28;20175;-71
2023/09/06 07:34:33;;;;;;;1999.90;999.90;;;20.70;99.90;;;;;;5054361;28;20265;-71
2023/09/06 07:36:58;;;;;;;1999.90;999.90;;;20.70;99.90;;;;;;5053327;28;20290;-71
2023/09/06 07:39:24;;;;;;;1999.90;999.90;;;20.80;99.90;;;;;;5041139;28;20337;-71
2023/09/06 07:41:53;;;;;;;1999.90;999.90;;;20.90;99.90;;;;;;5046028;28;20160;-71
2023/09/06 07:44:19;;;;;;;1999.90;999.90;;;21.00;99.90;;;;;;5053069;28;20207;-71
2023/09/06 07:46:48;;;;;;;1999.90;999.90;;;21.10;99.90;;;;;;5044833;28;20434;-71
2023/09/06 07:49:15;;;;;;;1999.90;999.90;;;21.20;99.90;;;;;;5036860;28;20389;-71
2023/09/06 07:51:41;;;;;;;1999.90;999.90;;;21.30;99.90;;;;;;5031185;28;20958;-71
2023/09/06 07:54:06;;;;;;;1999.90;999.90;;;21.40;99.90;;;;;;5044603;28;20412;-71
2023/09/06 07:56:32;;;;;;;1999.90;999.90;;;21.50;99.90;;;;;;5041695;28;20253;-71
2023/09/06 07:58:58;;;;;;;1999.90;999.90;;;21.70;99.90;;;;;;5030242;28;20709;-75
2023/09/06 08:01:23;;;;;;;1999.90;999.90;;;21.80;99.90;;;;;;5030716;28;20438;-73
2023/09/06 08:03:49;;;;;;;1999.90;999.90;;;21.70;99.90;;;;;;5039852;28;20257;-71
2023/09/06 08:06:15;;;;;;;1999.90;999.90;;;21.80;99.90;;;;;;5034549;28;20247;-72
2023/09/06 08:08:40;;;;;;;1999.90;999.90;;;21.90;99.90;;;;;;5039756;28;20198;-74
2023/09/06 08:11:06;;;;;;;1999.90;999.90;;;22.00;99.90;;;;;;5039822;28;20399;-71
2023/09/06 08:13:32;;;;;;;1999.90;999.90;;;22.10;99.90;;;;;;5040178;28;20184;-73
2023/09/06 08:15:58;;;;;;;1999.90;999.90;;;22.20;99.90;;;;;;5039760;28;20207;-74
2023/09/06 08:18:23;;;;;;;1999.90;999.90;;;22.30;99.90;;;;;;5048792;28;20502;-73
2023/09/06 08:20:49;;;;;;;1999.90;999.90;;;22.30;99.90;;;;;;5047798;28;20182;-73
2023/09/06 08:23:14;;;;;;;1999.90;999.90;;;22.40;99.90;;;;;;5035083;28;20202;-75
2023/09/06 08:25:40;;;;;;;1999.90;999.90;;;22.50;99.90;;;;;;5023082;28;20209;-74
2023/09/06 08:28:06;;;;;;;1999.90;999.90;;;22.60;99.90;;;;;;5039377;28;20191;-72
2023/09/06 08:30:31;;;;;;;1999.90;999.90;;;22.60;99.90;;;;;;5048558;28;20175;-72
2023/09/06 08:32:57;;;;;;;1999.90;999.90;;;22.70;99.90;;;;;;5047572;28;20176;-72
2023/09/06 08:35:27;;;;;;;1999.90;999.90;;;22.80;99.90;;;;;;5047680;28;20241;-72
2023/09/06 08:37:53;;;;;;;1999.90;999.90;;;22.90;99.90;;;;;;5024605;28;20184;-73
2023/09/06 08:40:21;;;;;;;1999.90;999.90;;;23.00;99.90;;;;;;5034976;28;20467;-73
2023/09/06 08:42:48;;;;;;;1999.90;999.90;;;23.10;99.90;;;;;;5035506;28;20195;-73
2023/09/06 08:45:21;;;;;;;1999.90;999.90;;;23.20;99.90;;;;;;5043940;28;20425;-74
2023/09/06 08:47:48;;;;;;;1999.90;999.90;;;23.30;99.90;;;;;;5039889;28;20398;-73
2023/09/06 08:50:14;;;;;;;1999.90;999.90;;;23.40;99.90;;;;;;5048084;28;20407;-72
2023/09/06 08:52:41;;;;;;;1999.90;999.90;;;23.50;99.90;;;;;;5047209;28;20919;-72
2023/09/06 08:55:10;;;;;;;1999.90;999.90;;;23.50;99.90;;;;;;5047751;28;20889;-73
2023/09/06 08:57:39;;;;;;;1999.90;999.90;;;23.60;99.90;;;;;;5044893;28;20553;-72
2023/09/06 09:00:09;;;;;;;1999.90;999.90;;;23.70;99.90;;;;;;5042598;28;20389;-73
2023/09/06 09:02:36;;;;;;;1999.90;999.90;;;23.80;99.90;;;;;;5047015;28;20501;-72
2023/09/06 09:05:04;;;;;;;1999.90;999.90;;;24.00;99.90;;;;;;5047540;28;20775;-73
2023/09/06 09:07:30;;;;;;;1999.90;999.90;;;24.00;99.90;;;;;;5048151;28;20902;-72
2023/09/06 09:09:57;;;;;;;1999.90;999.90;;;24.00;99.90;;;;;;5047330;28;20471;-72
2023/09/06 09:12:26;;;;;;;1999.90;999.90;;;24.10;99.90;;;;;;5047031;28;20421;-73
2023/09/06 09:14:56;;;;;;;1999.90;999.90;;;24.20;99.90;;;;;;5047894;28;20922;-72
2023/09/06 09:17:24;;;;;;;1999.90;999.90;;;24.30;99.90;;;;;;5039915;28;20447;-73
2023/09/06 09:19:51;;;;;;;1999.90;999.90;;;24.40;99.90;;;;;;5031894;28;20494;-73
2023/09/06 09:22:26;;;;;;;1999.90;999.90;;;24.50;99.90;;;;;;5020906;28;20447;-73
2023/09/06 09:25:13;;;;;;;1999.90;999.90;;;24.60;99.90;;;;;;5041192;28;20420;-73
2023/09/06 09:27:39;;;;;;;1999.90;999.90;;;24.70;99.90;;;;;;5042930;28;20484;-74
2023/09/06 09:30:06;;;;;;;1999.90;999.90;;;24.70;99.90;;;;;;5040614;28;20465;-72
2023/09/06 09:32:32;;;;;;;1999.90;999.90;;;24.80;99.90;;;;;;5050480;28;20652;-73
2023/09/06 09:34:58;;;;;;;1999.90;999.90;;;25.00;99.90;;;;;;5051016;28;20434;-72
2023/09/06 09:37:29;;;;;;;1999.90;999.90;;;25.10;99.90;;;;;;5042672;28;20210;-72
2023/09/06 09:39:58;;;;;;;1999.90;999.90;;;25.20;99.90;;;;;;5045456;28;20380;-72
2023/09/06 09:42:26;;;;;;;1999.90;999.90;;;25.40;99.90;;;;;;5051365;28;20926;-74
2023/09/06 09:45:01;;;;;;;1999.90;999.90;;;25.50;99.90;;;;;;5050909;28;20397;-74
2023/09/06 09:47:29;;;;;;;1999.90;999.90;;;25.50;99.90;;;;;;5048266;28;20421;-74
2023/09/06 09:49:55;;;;;;;1999.90;999.90;;;25.60;96.80;;;;;;5030939;28;20426;-72
2023/09/06 09:52:25;;;;;;;1999.90;999.90;;;25.70;96.10;;;;;;5040524;28;20443;-73
2023/09/06 09:54:51;;;;;;;1999.90;999.90;;;25.80;97.50;;;;;;5040184;28;20445;-73
2023/09/06 09:57:21;;;;;;;1999.90;999.90;;;25.90;94.20;;;;;;5038959;28;20804;-73
2023/09/06 09:59:49;;;;;;;1999.90;999.90;;;26.00;91.00;;;;;;5050757;28;20471;-71
2023/09/06 10:02:16;;;;;;;1999.90;999.90;;;26.10;90.40;;;;;;5051258;28;20833;-73
2023/09/06 10:04:43;;;;;;;1999.90;999.90;;;26.20;90.60;;;;;;5044012;28;20465;-74
2023/09/06 10:07:11;;;;;;;1999.90;999.90;;;26.30;88.10;;;;;;5046215;28;20417;-72
2023/09/06 10:09:41;;;;;;;1999.90;999.90;;;26.40;90.20;;;;;;5051408;28;20479;-72
2023/09/06 10:12:13;;;;;;;1999.90;999.90;;;26.50;90.10;;;;;;5040358;28;20429;-72
2023/09/06 10:14:41;;;;;;;1999.90;999.90;;;26.60;84.20;;;;;;5039271;28;20413;-71
2023/09/06 10:17:08;;;;;;;1999.90;999.90;;;26.70;82.30;;;;;;5036250;28;20509;-72
2023/09/06 10:19:38;;;;;;;1999.90;999.90;;;26.80;85.40;;;;;;5050162;28;20892;-71
2023/09/06 10:22:07;;;;;;;1999.90;999.90;;;27.00;86.30;;;;;;5050428;28;20406;-72
2023/09/06 10:24:35;;;;;;;1999.90;999.90;;;27.10;85.90;;;;;;5049992;28;20404;-73
2023/09/06 10:27:02;;;;;;;1999.90;999.90;;;27.30;86.60;;;;;;5075259;22;20483;-69
2023/09/06 10:29:30;;;;;;;1999.90;999.90;;;27.40;81.40;;;;;;5025457;28;20427;-69
2023/09/06 10:32:05;;;;;;;1999.90;999.90;;;27.70;75.50;;;;;;5035933;28;20446;-68
2023/09/06 10:34:33;;;;;;;1999.90;999.90;;;27.70;75.50;;;;;;5029951;28;20515;-70
2023/09/06 10:37:00;;;;;;;1999.90;999.90;;;27.90;66.70;;;;;;5030793;28;20466;-71
2023/09/06 10:39:31;;;;;;;1999.90;999.90;;;28.10;57.50;;;;;;5031163;28;20445;-72
2023/09/06 10:42:11;;;;;;;1999.90;999.90;;;28.10;59.60;;;;;;5023110;28;20427;-71
2023/09/06 10:44:55;;;;;;;1999.90;999.90;;;28.20;61.10;;;;;;5040207;28;20459;-71
2023/09/06 10:47:32;;;;;;;1999.90;999.90;;;28.30;62.60;;;;;;5046705;28;20488;-72
2023/09/06 10:50:12;;;;;;;1999.90;999.90;;;28.50;58.70;;;;;;5047961;28;20794;-68
2023/09/06 10:52:56;;;;;;;1999.90;999.90;;;28.60;54.80;;;;;;5036364;28;20507;-69
2023/09/06 10:55:26;;;;;;;1999.90;999.90;;;28.70;51.10;;;;;;5050542;28;20418;-72
2023/09/06 10:58:06;;;;;;;1999.90;999.90;;;28.80;54.80;;;;;;5053660;28;20458;-72
2023/09/06 11:00:34;;;;;;;1999.90;999.90;;;28.90;46.70;;;;;;5053335;28;20410;-70
2023/09/06 11:03:17;;;;;;;1999.90;999.90;;;29.00;36.70;;;;;;5056755;28;20418;-70
2023/09/06 11:05:50;;;;;;;1999.90;999.90;;;29.00;36.70;;;;;;5051416;28;20422;-72
2023/09/06 11:08:26;;;;;;;1999.90;999.90;;;29.10;26.50;;;;;;5054607;28;20409;-70
2023/09/06 11:10:54;;;;;;;1999.90;999.90;;;29.10;24.30;;;;;;5053805;28;20390;-67
2023/09/06 11:13:20;;;;;;;1999.90;999.90;;;29.20;23.00;;;;;;5054279;28;20779;-69
2023/09/06 11:15:49;;;;;;;1999.90;999.90;;;29.20;21.80;;;;;;5055897;28;20463;-69
2023/09/06 11:18:15;;;;;;;1999.90;999.90;;;29.30;25.20;;;;;;5054453;28;20736;-70
2023/09/06 11:20:47;;;;;;;1999.90;999.90;;;29.40;22.50;;;;;;5054840;28;20406;-70
2023/09/06 11:23:13;;;;;;;1999.90;999.90;;;29.60;21.20;;;;;;5052531;28;20235;-70
2023/09/06 11:25:38;;;;;;;1999.90;999.90;;;29.60;18.60;;;;;;5053858;28;20458;-70
2023/09/06 11:28:18;;;;;;;1999.90;999.90;;;29.70;19.30;;;;;;5053684;28;20581;-70
2023/09/06 11:30:47;;;;;;;1999.90;999.90;;;29.80;18.90;;;;;;5054007;28;20644;-71
2023/09/06 11:33:16;;;;;;;1999.90;999.90;;;30.00;22.10;;;;;;5050910;28;20414;-69
2023/09/06 11:35:52;;;;;;;1999.90;999.90;;;30.10;21.40;;;;;;5051998;28;20758;-71
2023/09/06 11:38:25;;;;;;;1999.90;999.90;;;30.30;20.20;;;;;;5053799;28;20421;-70
2023/09/06 11:40:51;;;;;;;1999.90;999.90;;;30.40;21.60;;;;;;5052857;28;20413;-69
2023/09/06 11:43:23;;;;;;;1999.90;999.90;;;30.60;21.20;;;;;;5052620;28;20410;-67
2023/09/06 11:45:53;;;;;;;1999.90;999.90;;;30.70;17.10;;;;;;5050538;28;20414;-71
2023/09/06 11:48:25;;;;;;;1999.90;999.90;;;32.40;20.90;;;;;;5052042;28;20429;-69
2023/09/06 11:50:58;;;;;;;1999.90;999.90;;;32.00;20.20;;;;;;5054473;28;21151;-74
2023/09/06 11:53:25;;;;;;;1999.90;999.90;;;32.90;17.30;;;;;;5050887;28;20406;-72
2023/09/06 11:55:52;;;;;;;1999.90;999.90;;;33.80;11.30;;;;;;5049612;28;20434;-73
2023/09/06 11:58:18;;;;;;;1999.90;999.90;;;34.60;6.40;;;;;;5054601;28;20434;-72
2023/09/06 12:00:50;;;;;;;1999.90;999.90;;;35.40;4.30;;;;;;5049746;28;21323;-70
2023/09/06 12:03:16;;;;;;;1999.90;999.90;;;36.10;4.50;;;;;;5050040;28;20187;-71